createdAt,value
2024-03-09T00:01:10.148Z,41.28
2024-03-09T00:03:37.695Z,43.25
2024-03-09T00:06:05.253Z,42.88
2024-03-09T00:08:33.637Z,45.83
2024-03-09T00:11:02.096Z,41.28
2024-03-09T00:13:30.026Z,42.67
2024-03-09T00:15:57.964Z,43.15
2024-03-09T00:18:36.425Z,45.40
2024-03-09T00:21:10.774Z,41.42
2024-03-09T00:23:38.399Z,42.42
2024-03-09T00:26:07.220Z,44.00
2024-03-09T00:28:34.208Z,44.75
2024-03-09T00:31:01.627Z,41.92
2024-03-09T00:33:29.784Z,42.75
2024-03-09T00:35:56.660Z,45.70
2024-03-09T00:38:25.410Z,43.55
2024-03-09T00:40:52.599Z,39.88
2024-03-09T00:43:19.601Z,44.53
2024-03-09T00:45:46.479Z,43.20
2024-03-09T00:48:14.521Z,42.83
2024-03-09T00:50:43.519Z,48.38
2024-03-09T00:53:11.062Z,41.17
2024-03-09T00:55:38.263Z,44.83
2024-03-09T00:58:07.228Z,40.47
2024-03-09T01:00:34.451Z,48.28
2024-03-09T01:03:01.596Z,45.40
2024-03-09T01:05:29.586Z,43.83
2024-03-09T01:07:58.385Z,43.80
2024-03-09T01:10:25.583Z,47.83
2024-03-09T01:12:52.439Z,46.15
2024-03-09T01:15:20.300Z,46.30
2024-03-09T01:17:47.369Z,48.92
2024-03-09T01:20:15.088Z,50.35
2024-03-09T01:22:45.412Z,50.22
2024-03-09T01:25:13.675Z,49.63
2024-03-09T01:27:40.911Z,48.58
2024-03-09T01:30:10.441Z,49.03
2024-03-09T01:32:37.915Z,53.67
2024-03-09T01:35:05.426Z,50.35
2024-03-09T01:37:32.417Z,52.83
2024-03-09T01:39:59.644Z,55.15
2024-03-09T01:42:27.943Z,51.53
2024-03-09T01:44:54.909Z,51.65
2024-03-09T01:47:27.369Z,52.55
2024-03-09T01:49:58.349Z,48.47
2024-03-09T01:52:28.100Z,51.63
2024-03-09T01:54:56.254Z,51.17
2024-03-09T01:57:23.440Z,52.80
2024-03-09T01:59:55.669Z,53.50
2024-03-09T02:02:24.652Z,54.22
2024-03-09T02:04:52.508Z,55.72
2024-03-09T02:07:19.711Z,59.78
2024-03-09T02:09:50.020Z,53.53
2024-03-09T02:12:19.088Z,54.65
2024-03-09T02:14:46.619Z,56.50
2024-03-09T02:17:14.834Z,56.92
2024-03-09T02:19:42.590Z,52.08
2024-03-09T02:22:12.481Z,58.95
2024-03-09T02:24:44.017Z,55.70
2024-03-09T02:27:11.514Z,54.95
2024-03-09T02:29:39.374Z,55.58
2024-03-09T02:32:08.112Z,53.75
2024-03-09T02:34:35.546Z,55.67
2024-03-09T02:37:04.333Z,57.28
2024-03-09T02:39:32.041Z,54.53
2024-03-09T02:42:00.236Z,58.05
2024-03-09T02:44:30.216Z,57.53
2024-03-09T02:46:57.177Z,59.55
2024-03-09T02:49:26.329Z,57.88
2024-03-09T02:51:55.228Z,56.85
2024-03-09T02:54:24.286Z,61.53
2024-03-09T02:56:51.434Z,57.67
2024-03-09T02:59:18.447Z,67.22
2024-03-09T03:01:48.194Z,59.50
2024-03-09T03:04:16.480Z,59.58
2024-03-09T03:06:45.227Z,59.85
2024-03-09T03:09:13.641Z,59.10
2024-03-09T03:11:44.210Z,58.47
2024-03-09T03:14:11.907Z,62.17
2024-03-09T03:16:39.323Z,59.55
2024-03-09T03:19:07.944Z,57.45
2024-03-09T03:21:36.147Z,60.72
2024-03-09T03:24:03.655Z,59.35
2024-03-09T03:26:34.010Z,62.47
2024-03-09T03:29:03.303Z,63.33
2024-03-09T03:31:30.925Z,63.00
2024-03-09T03:33:58.421Z,60.58
2024-03-09T03:36:25.597Z,66.45
2024-03-09T03:38:52.585Z,62.58
2024-03-09T03:41:23.760Z,68.25
2024-03-09T03:43:51.655Z,64.97
2024-03-09T03:46:18.895Z,65.72
2024-03-09T03:48:46.611Z,68.18
2024-03-09T03:51:15.361Z,65.15
2024-03-09T03:53:45.725Z,63.08
2024-03-09T03:56:15.588Z,61.28
2024-03-09T03:58:45.786Z,57.88
2024-03-09T04:01:13.172Z,63.58
2024-03-09T04:03:40.722Z,64.47
2024-03-09T04:06:08.861Z,63.80
2024-03-09T04:08:36.512Z,65.18
2024-03-09T04:11:13.018Z,71.32
2024-03-09T04:13:41.410Z,68.97
2024-03-09T04:16:09.489Z,67.30
2024-03-09T04:18:38.068Z,66.88
2024-03-09T04:21:06.406Z,68.57
2024-03-09T04:23:35.740Z,68.55
2024-03-09T04:26:04.126Z,65.43
2024-03-09T04:28:34.221Z,69.00
2024-03-09T04:31:01.922Z,73.18
2024-03-09T04:33:29.843Z,71.60
2024-03-09T04:35:58.726Z,67.28
2024-03-09T04:38:27.516Z,69.15
2024-03-09T04:40:56.267Z,74.25
2024-03-09T04:43:24.178Z,71.47
2024-03-09T04:45:58.711Z,68.45
2024-03-09T04:48:26.158Z,66.38
2024-03-09T04:50:53.141Z,70.45
2024-03-09T04:53:20.949Z,63.03
2024-03-09T04:55:53.225Z,72.00
2024-03-09T04:58:22.971Z,69.47
2024-03-09T05:00:49.917Z,72.50
2024-03-09T05:03:19.297Z,72.85
2024-03-09T05:05:46.982Z,66.43
2024-03-09T05:08:15.659Z,67.60
2024-03-09T05:10:43.298Z,69.43
2024-03-09T05:13:11.577Z,65.07
2024-03-09T05:15:39.171Z,65.45
2024-03-09T05:18:13.169Z,73.18
2024-03-09T05:20:41.051Z,47.58
2024-03-09T05:23:13.645Z,67.38
2024-03-09T05:25:44.274Z,73.15
2024-03-09T05:28:32.545Z,71.88
2024-03-09T05:31:01.117Z,73.40
2024-03-09T05:33:29.438Z,78.88
2024-03-09T05:35:56.454Z,80.55
2024-03-09T05:38:36.877Z,85.40
2024-03-09T05:41:04.039Z,83.53
2024-03-09T05:43:37.582Z,83.93
2024-03-09T05:46:09.023Z,86.38
2024-03-09T05:48:37.522Z,83.65
2024-03-09T05:51:09.155Z,84.85
2024-03-09T05:53:40.307Z,82.20
2024-03-09T05:56:15.002Z,79.72
2024-03-09T05:58:43.509Z,87.45
2024-03-09T06:01:14.830Z,82.93
2024-03-09T06:06:42.282Z,79.85
2024-03-09T06:09:11.492Z,76.25
2024-03-09T06:11:51.133Z,71.72
2024-03-09T06:14:32.181Z,65.82
2024-03-09T06:20:00.973Z,62.63
2024-03-09T06:22:28.087Z,65.07
2024-03-09T06:24:55.103Z,65.40
2024-03-09T06:27:28.515Z,66.53
2024-03-09T06:30:00.743Z,49.03
2024-03-09T06:35:28.514Z,59.38
2024-03-09T06:38:18.951Z,61.30
2024-03-09T06:40:47.688Z,67.50
2024-03-09T06:43:15.838Z,69.72
2024-03-09T06:45:57.687Z,61.17
2024-03-09T06:48:26.596Z,63.33
2024-03-09T06:50:58.666Z,63.72
2024-03-09T06:53:27.949Z,63.55
2024-03-09T06:55:56.303Z,60.83
2024-03-09T06:58:23.526Z,59.63
2024-03-09T07:01:04.690Z,58.80
2024-03-09T07:03:31.765Z,54.25
2024-03-09T07:05:59.592Z,60.13
2024-03-09T07:08:26.813Z,55.53
2024-03-09T07:11:01.797Z,55.40
2024-03-09T07:13:30.719Z,53.55
2024-03-09T07:15:58.520Z,55.08
2024-03-09T07:18:26.292Z,52.00
2024-03-09T07:20:53.517Z,53.05
2024-03-09T07:23:20.336Z,45.92
2024-03-09T07:25:47.253Z,44.67
2024-03-09T07:28:19.874Z,44.35
2024-03-09T07:30:47.012Z,45.85
2024-03-09T07:33:14.296Z,40.65
2024-03-09T07:35:41.256Z,42.33
2024-03-09T07:38:08.498Z,43.88
2024-03-09T07:40:38.434Z,42.33
2024-03-09T07:43:11.464Z,43.00
2024-03-09T07:45:39.256Z,42.45
2024-03-09T07:48:06.733Z,39.85
2024-03-09T07:50:34.432Z,45.10
2024-03-09T07:53:02.069Z,41.80
2024-03-09T07:55:30.617Z,46.17
2024-03-09T07:58:12.857Z,42.58
2024-03-09T08:00:46.829Z,44.63
2024-03-09T08:03:15.310Z,39.63
2024-03-09T08:05:43.755Z,40.25
2024-03-09T08:08:14.540Z,40.15
2024-03-09T08:10:49.607Z,42.00
2024-03-09T08:15:55.639Z,38.78
2024-03-09T08:18:23.605Z,39.15
2024-03-09T08:20:51.264Z,40.78
2024-03-09T08:23:18.817Z,39.70
2024-03-09T08:25:46.907Z,40.20
2024-03-09T08:28:14.429Z,36.22
2024-03-09T08:30:42.681Z,37.20
2024-03-09T08:33:10.966Z,38.22
2024-03-09T08:35:38.774Z,35.95
2024-03-09T08:38:07.914Z,38.03
2024-03-09T08:40:36.544Z,38.88
2024-03-09T08:43:08.138Z,31.77
2024-03-09T08:45:36.090Z,38.05
2024-03-09T08:48:05.528Z,30.10
2024-03-09T08:50:35.086Z,30.73
2024-03-09T08:53:02.429Z,26.00
2024-03-09T08:55:30.077Z,25.50
2024-03-09T08:58:22.500Z,26.20
2024-03-09T09:00:49.711Z,25.58
2024-03-09T09:03:19.393Z,27.27
2024-03-09T09:05:47.011Z,29.67
2024-03-09T09:08:26.545Z,29.98
2024-03-09T09:10:55.443Z,26.98
2024-03-09T09:13:23.160Z,25.48
2024-03-09T09:15:50.961Z,28.02
2024-03-09T09:18:19.654Z,25.27
2024-03-09T09:20:49.663Z,25.05
2024-03-09T09:23:17.462Z,23.60
2024-03-09T09:25:46.720Z,25.42
2024-03-09T09:28:17.269Z,28.30
2024-03-09T09:30:45.521Z,26.77
2024-03-09T09:33:15.901Z,29.40
2024-03-09T09:35:42.789Z,24.30
2024-03-09T09:38:10.971Z,25.67
2024-03-09T09:40:38.974Z,24.13
2024-03-09T09:43:08.267Z,28.30
2024-03-09T09:45:44.365Z,27.65
2024-03-09T09:48:16.163Z,28.15
2024-03-09T09:50:46.399Z,26.25
2024-03-09T09:53:19.472Z,27.55
2024-03-09T09:55:48.645Z,26.13
2024-03-09T09:58:15.893Z,23.90
2024-03-09T10:00:43.169Z,26.63
2024-03-09T10:03:11.592Z,27.45
2024-03-09T10:05:41.121Z,27.70
2024-03-09T10:08:13.336Z,27.98
2024-03-09T10:10:44.905Z,27.02
2024-03-09T10:13:13.815Z,25.98
2024-03-09T10:15:46.241Z,26.02
2024-03-09T10:18:14.984Z,29.10
2024-03-09T10:20:42.916Z,27.38
2024-03-09T10:23:14.004Z,25.25
2024-03-09T10:25:42.159Z,26.77
2024-03-09T10:28:11.682Z,25.00
2024-03-09T10:30:39.612Z,25.60
2024-03-09T10:33:12.175Z,26.85
2024-03-09T10:35:42.000Z,27.50
2024-03-09T10:38:10.865Z,27.65
2024-03-09T10:40:41.111Z,27.98
2024-03-09T10:43:14.651Z,28.30
2024-03-09T10:45:42.754Z,27.88
2024-03-09T10:48:13.944Z,24.92
2024-03-09T10:50:47.596Z,26.13
2024-03-09T10:53:36.716Z,26.95
2024-03-09T10:56:06.787Z,25.00
2024-03-09T10:58:34.819Z,28.17
2024-03-09T11:01:02.147Z,26.45
2024-03-09T11:03:33.593Z,26.27
2024-03-09T11:06:00.668Z,25.55
2024-03-09T11:08:27.635Z,26.58
2024-03-09T11:10:55.169Z,24.65
2024-03-09T11:13:23.215Z,24.58
2024-03-09T11:15:53.557Z,30.60
2024-03-09T11:18:24.056Z,32.88
2024-03-09T11:21:03.953Z,30.15
2024-03-09T11:23:36.365Z,30.73
2024-03-09T11:26:04.931Z,26.98
2024-03-09T11:28:45.192Z,29.92
2024-03-09T11:31:18.521Z,29.27
2024-03-09T11:33:50.883Z,29.10
2024-03-09T11:36:41.927Z,31.55
2024-03-09T11:39:09.442Z,29.35
2024-03-09T11:41:37.998Z,35.72
2024-03-09T11:44:08.586Z,33.15
2024-03-09T11:46:35.986Z,29.17
2024-03-09T11:49:06.792Z,31.35
2024-03-09T11:51:40.941Z,31.80
2024-03-09T11:54:11.497Z,28.90
2024-03-09T11:56:39.845Z,30.20
2024-03-09T11:59:08.150Z,28.48
2024-03-09T12:01:38.356Z,32.25
2024-03-09T12:04:06.958Z,30.02
2024-03-09T12:06:34.748Z,30.70
2024-03-09T12:09:02.129Z,28.55
2024-03-09T12:11:32.499Z,29.25
2024-03-09T12:13:59.830Z,29.63
2024-03-09T12:16:28.443Z,28.83
2024-03-09T12:18:58.438Z,27.98
2024-03-09T12:21:27.733Z,29.55
2024-03-09T12:24:05.751Z,28.23
2024-03-09T12:26:34.395Z,29.75
2024-03-09T12:29:06.424Z,30.23
2024-03-09T12:31:35.113Z,28.27
2024-03-09T12:34:09.080Z,30.15
2024-03-09T12:36:36.289Z,29.35
2024-03-09T12:39:17.799Z,27.83
2024-03-09T12:41:53.518Z,27.50
2024-03-09T12:44:22.323Z,27.33
2024-03-09T12:46:50.516Z,24.83
2024-03-09T12:49:17.692Z,23.25
2024-03-09T12:51:48.374Z,26.83
2024-03-09T12:54:15.688Z,25.17
2024-03-09T12:56:49.613Z,27.70
2024-03-09T12:59:23.291Z,27.98
2024-03-09T13:01:52.575Z,30.05
2024-03-09T13:04:26.913Z,27.17
2024-03-09T13:06:58.085Z,28.33
2024-03-09T13:09:33.378Z,27.92
2024-03-09T13:12:06.293Z,26.23
2024-03-09T13:14:38.599Z,26.85
2024-03-09T13:17:07.731Z,27.00
2024-03-09T13:19:37.835Z,28.00
2024-03-09T13:22:07.458Z,26.45
2024-03-09T13:24:35.980Z,28.20
2024-03-09T13:27:04.075Z,27.83
2024-03-09T13:29:32.082Z,25.00
2024-03-09T13:32:00.275Z,28.10
2024-03-09T13:34:31.734Z,29.98
2024-03-09T13:36:59.604Z,28.10
2024-03-09T13:39:29.436Z,31.02
2024-03-09T13:41:58.175Z,33.10
2024-03-09T13:44:26.172Z,32.83
2024-03-09T13:46:54.215Z,31.05
2024-03-09T13:49:21.702Z,34.35
2024-03-09T13:51:49.018Z,32.72
2024-03-09T13:54:19.776Z,32.67
2024-03-09T13:56:47.699Z,30.80
2024-03-09T13:59:16.148Z,32.97
2024-03-09T14:01:47.162Z,33.65
2024-03-09T14:04:15.886Z,37.38
2024-03-09T14:06:56.949Z,32.17
2024-03-09T14:09:33.718Z,31.92
2024-03-09T14:12:04.178Z,32.60
2024-03-09T14:14:31.475Z,32.28
2024-03-09T14:16:58.880Z,30.63
2024-03-09T14:19:25.875Z,32.58
2024-03-09T14:21:53.129Z,31.95
2024-03-09T14:24:21.261Z,32.03
2024-03-09T14:26:48.445Z,33.28
2024-03-09T14:29:18.408Z,30.98
2024-03-09T14:31:48.355Z,30.80
2024-03-09T14:34:15.949Z,31.58
2024-03-09T14:36:43.080Z,33.97
2024-03-09T14:39:17.930Z,35.33
2024-03-09T14:41:45.383Z,32.78
2024-03-09T14:44:12.833Z,33.08
2024-03-09T14:46:41.472Z,34.58
2024-03-09T14:49:11.065Z,34.83
2024-03-09T14:51:38.518Z,35.00
2024-03-09T14:54:05.957Z,35.70
2024-03-09T14:56:33.000Z,36.78
2024-03-09T14:59:06.252Z,36.50
2024-03-09T15:01:33.778Z,33.17
2024-03-09T15:04:00.913Z,36.97
2024-03-09T15:06:27.887Z,33.83
2024-03-09T15:08:59.664Z,35.38
2024-03-09T15:11:27.641Z,35.42
2024-03-09T15:13:58.590Z,35.53
2024-03-09T15:16:28.568Z,38.70
2024-03-09T15:18:57.421Z,35.58
2024-03-09T15:21:28.883Z,35.47
2024-03-09T15:23:56.898Z,38.05
2024-03-09T15:26:28.661Z,41.80
2024-03-09T15:28:59.089Z,35.83
2024-03-09T15:31:28.487Z,39.65
2024-03-09T15:33:56.727Z,39.63
2024-03-09T15:36:25.213Z,39.88
2024-03-09T15:38:55.723Z,37.38
2024-03-09T15:41:23.569Z,40.95
2024-03-09T15:43:51.549Z,39.65
2024-03-09T15:46:20.209Z,40.22
2024-03-09T15:48:49.191Z,39.65
2024-03-09T15:51:19.956Z,39.55
2024-03-09T15:53:47.651Z,43.20
2024-03-09T15:56:21.526Z,44.85
2024-03-09T15:58:49.885Z,30.17
2024-03-09T16:01:23.208Z,44.40
2024-03-09T16:03:51.111Z,39.58
2024-03-09T16:06:18.353Z,48.15
2024-03-09T16:08:45.297Z,41.83
2024-03-09T16:11:12.668Z,44.08
2024-03-09T16:13:39.910Z,45.15
2024-03-09T16:16:15.403Z,43.05
2024-03-09T16:18:42.995Z,44.78
2024-03-09T16:21:10.510Z,42.95
2024-03-09T16:23:38.671Z,42.47
2024-03-09T16:26:07.547Z,42.80
2024-03-09T16:28:37.585Z,42.45
2024-03-09T16:31:05.815Z,42.63
2024-03-09T16:33:34.602Z,40.85
2024-03-09T16:36:03.728Z,43.38
2024-03-09T16:38:31.635Z,43.60
2024-03-09T16:41:02.441Z,45.53
2024-03-09T16:43:34.488Z,40.88
2024-03-09T16:46:08.948Z,45.55
2024-03-09T16:48:38.437Z,43.28
2024-03-09T16:51:09.236Z,41.13
2024-03-09T16:53:41.148Z,42.10
2024-03-09T16:56:13.899Z,38.90
2024-03-09T16:58:41.647Z,40.78
2024-03-09T17:01:09.562Z,38.05
2024-03-09T17:03:37.372Z,41.05
2024-03-09T17:06:04.675Z,39.67
2024-03-09T17:08:31.789Z,41.20
2024-03-09T17:11:10.803Z,38.33
2024-03-09T17:13:42.745Z,40.42
2024-03-09T17:16:12.208Z,39.95
2024-03-09T17:18:41.589Z,38.53
2024-03-09T17:21:08.775Z,40.42
2024-03-09T17:23:35.953Z,41.83
2024-03-09T17:26:03.676Z,39.83
2024-03-09T17:28:30.973Z,41.63
2024-03-09T17:30:58.063Z,39.83
2024-03-09T17:33:26.946Z,39.85
2024-03-09T17:35:54.813Z,39.03
2024-03-09T17:38:23.620Z,41.67
2024-03-09T17:40:51.142Z,41.65
2024-03-09T17:43:18.452Z,44.83
2024-03-09T17:45:46.824Z,40.97
2024-03-09T17:48:15.008Z,40.60
2024-03-09T17:50:43.777Z,41.10
2024-03-09T17:53:11.161Z,41.40
2024-03-09T17:55:38.568Z,43.65
2024-03-09T17:58:09.649Z,43.17
2024-03-09T18:00:40.144Z,42.38
2024-03-09T18:03:09.524Z,40.92
2024-03-09T18:05:39.117Z,41.20
2024-03-09T18:08:11.784Z,38.47
2024-03-09T18:10:42.061Z,40.03
2024-03-09T18:13:14.499Z,42.42
2024-03-09T18:15:47.019Z,41.67
2024-03-09T18:18:15.541Z,44.30
2024-03-09T18:20:44.725Z,44.50
2024-03-09T18:23:13.068Z,40.05
2024-03-09T18:25:41.274Z,42.15
2024-03-09T18:28:09.446Z,44.88
2024-03-09T18:30:37.349Z,43.22
2024-03-09T18:33:10.315Z,45.72
2024-03-09T18:35:39.215Z,41.10
2024-03-09T18:38:07.489Z,44.60
2024-03-09T18:40:35.753Z,41.63
2024-03-09T18:43:04.076Z,41.17
2024-03-09T18:45:34.602Z,43.55
2024-03-09T18:48:03.424Z,43.97
2024-03-09T18:50:31.945Z,43.03
2024-03-09T18:52:59.976Z,44.30
2024-03-09T18:55:29.147Z,43.08
2024-03-09T18:57:57.120Z,41.58
2024-03-09T19:00:31.851Z,41.30
2024-03-09T19:03:00.782Z,44.90
2024-03-09T19:05:28.770Z,44.20
2024-03-09T19:07:57.380Z,44.55
2024-03-09T19:10:28.239Z,43.45
2024-03-09T19:12:56.205Z,40.15
2024-03-09T19:15:29.531Z,43.20
2024-03-09T19:17:58.964Z,43.83
2024-03-09T19:20:26.790Z,41.03
2024-03-09T19:22:58.081Z,44.85
2024-03-09T19:25:26.033Z,46.10
2024-03-09T19:27:53.915Z,41.20
2024-03-09T19:30:27.622Z,43.55
2024-03-09T19:32:57.816Z,42.35
2024-03-09T19:35:27.146Z,47.10
2024-03-09T19:37:59.039Z,52.17
2024-03-09T19:40:27.841Z,48.42
2024-03-09T19:42:56.345Z,52.92
2024-03-09T19:45:24.696Z,46.42
2024-03-09T19:47:53.233Z,46.63
2024-03-09T19:50:27.659Z,46.60
2024-03-09T19:52:54.915Z,36.45
2024-03-09T19:55:25.524Z,45.50
2024-03-09T19:57:53.613Z,44.95
2024-03-09T20:00:24.141Z,47.40
2024-03-09T20:02:53.038Z,47.78
2024-03-09T20:05:22.387Z,46.47
2024-03-09T20:07:57.085Z,45.38
2024-03-09T20:10:26.851Z,44.35
2024-03-09T20:12:58.341Z,48.97
2024-03-09T20:15:28.659Z,47.15
2024-03-09T20:17:56.972Z,47.97
2024-03-09T20:20:26.180Z,46.30
2024-03-09T20:22:58.721Z,44.00
2024-03-09T20:25:28.208Z,47.25
2024-03-09T20:27:56.500Z,47.20
2024-03-09T20:30:23.856Z,46.50
2024-03-09T20:32:51.268Z,45.72
2024-03-09T20:35:19.695Z,49.92
2024-03-09T20:37:48.624Z,50.20
2024-03-09T20:40:17.480Z,47.50
2024-03-09T20:42:53.104Z,51.70
2024-03-09T20:45:22.298Z,48.67
2024-03-09T20:47:50.748Z,46.97
2024-03-09T20:50:22.002Z,48.60
2024-03-09T20:52:54.573Z,48.78
2024-03-09T20:55:22.246Z,51.08
2024-03-09T20:57:50.312Z,55.08
2024-03-09T21:00:24.122Z,49.55
2024-03-09T21:02:52.314Z,53.92
2024-03-09T21:05:20.320Z,53.28
2024-03-09T21:07:47.580Z,50.95
2024-03-09T21:10:15.023Z,52.63
2024-03-09T21:12:50.792Z,57.97
2024-03-09T21:15:22.900Z,53.58
2024-03-09T21:17:50.209Z,53.92
2024-03-09T21:20:19.869Z,50.92
2024-03-09T21:22:50.264Z,51.53
2024-03-09T21:25:17.864Z,54.78
2024-03-09T21:27:45.582Z,52.10
2024-03-09T21:30:17.657Z,51.50
2024-03-09T21:32:48.947Z,50.40
2024-03-09T21:35:20.958Z,56.45
2024-03-09T21:37:53.111Z,51.83
2024-03-09T21:40:22.072Z,55.40
2024-03-09T21:42:49.269Z,54.50
2024-03-09T21:45:16.410Z,53.85
2024-03-09T21:47:47.642Z,57.50
2024-03-09T21:50:17.068Z,56.70
2024-03-09T21:52:45.598Z,57.33
2024-03-09T21:55:14.744Z,62.45
2024-03-09T21:57:44.668Z,58.90
2024-03-09T22:00:22.385Z,63.47
2024-03-09T22:02:57.901Z,61.50
2024-03-09T22:05:30.018Z,63.55
2024-03-09T22:07:58.639Z,61.42
2024-03-09T22:10:29.083Z,61.00
2024-03-09T22:12:57.358Z,60.67
2024-03-09T22:15:27.434Z,61.38
2024-03-09T22:17:56.292Z,66.35
2024-03-09T22:20:23.806Z,63.40
2024-03-09T22:22:50.969Z,62.50
2024-03-09T22:25:27.074Z,58.10
2024-03-09T22:27:54.994Z,64.43
2024-03-09T22:30:23.062Z,61.20
2024-03-09T22:32:50.291Z,65.78
2024-03-09T22:35:17.979Z,62.83
2024-03-09T22:37:46.214Z,64.53
2024-03-09T22:40:15.438Z,68.75
2024-03-09T22:42:42.709Z,64.15
2024-03-09T22:45:16.079Z,60.45
2024-03-09T22:47:48.352Z,63.30
2024-03-09T22:50:17.238Z,67.50
2024-03-09T22:52:44.888Z,59.50
2024-03-09T22:55:12.462Z,64.72
2024-03-09T22:57:39.778Z,66.38
2024-03-09T23:00:20.224Z,62.90
2024-03-09T23:02:48.020Z,65.22
2024-03-09T23:05:18.051Z,63.75
2024-03-09T23:07:46.025Z,64.80
2024-03-09T23:10:15.228Z,66.53
2024-03-09T23:12:45.631Z,61.55
2024-03-09T23:15:17.019Z,65.43
2024-03-09T23:17:44.919Z,69.05
2024-03-09T23:20:14.178Z,69.63
2024-03-09T23:22:43.372Z,68.63
2024-03-09T23:25:13.578Z,67.45
2024-03-09T23:27:41.314Z,69.00
2024-03-09T23:30:10.324Z,64.97
2024-03-09T23:32:37.436Z,69.18
2024-03-09T23:35:07.902Z,69.47
2024-03-09T23:37:35.006Z,72.00
2024-03-09T23:40:02.227Z,67.57
2024-03-09T23:42:30.084Z,72.63
2024-03-09T23:44:57.401Z,72.32
2024-03-09T23:47:24.413Z,71.25
2024-03-09T23:49:51.782Z,68.32
2024-03-09T23:52:18.994Z,65.18
2024-03-09T23:54:45.918Z,66.00
2024-03-09T23:57:13.826Z,69.22
2024-03-09T23:59:41.550Z,63.65
